PWSweather.com
Personal Weather Stations
Station Observations
KJ4AJP
Beautiful Downtown Gardner, Martin, TN 38237

Beautiful Downtown GardnerMartin, TN 38237

Lat: 36.358, Lon: -88.8994

Elevation: 384.3

Station Type: TP1080WC

http://weather.mambm.com/

High Low Average
Temperature 19.0°F-7.2°C -1.3°F-18.5°C 10.7°F-11.8°C
Dew Point 18.8°F-7.3°C -3.5°F-19.7°C 7.8°F-13.4°C
Winds 9.2 mph 14.8 kmh Calm Calm 2.0 mph W3.2 kmh W
Wind Gusts 15.2 mph24.5 kmh -- 5.0 mph8.0 kmh
Humidity 99% 73% 88%
Pressure 30.67 in1038.6 mb 30.52 in1033.5 mb -
Precipitation 0.08 in2.0 mm - -
Hour Temp Dew Point Humidity Winds Wind Gusts Pressure Precip Precip Rate Daily Precip Total
12:00 AM 22.3°F-5.4°C 22.1°F-5.5°C 99% 3.1 mph N5.0 kmh N 9.2 mph14.8 kmh 30.49 in1032.5 mb 0.00 in0.0 mm 0.00 in0.0 mm 0.08 in2.0 mm
12:15 AM 22.1°F-5.5°C 21.9°F-5.6°C 99% 2.2 mph NNW3.5 kmh NNW 9.8 mph15.8 kmh 30.50 in1032.8 mb 0.00 in0.0 mm 0.00 in0.0 mm 0.08 in2.0 mm
12:30 AM 21.0°F-6.1°C 20.8°F-6.2°C 99% 8.3 mph N13.4 kmh N 13.6 mph21.9 kmh 30.51 in1033.2 mb 0.00 in0.0 mm 0.00 in0.0 mm 0.08 in2.0 mm
12:45 AM 19.8°F-6.8°C 19.6°F-6.9°C 99% 8.3 mph N13.4 kmh N 18.3 mph29.5 kmh 30.51 in1033.2 mb 0.00 in0.0 mm 0.00 in0.0 mm 0.08 in2.0 mm
01:00 AM 19.0°F-7.2°C 18.8°F-7.3°C 99% 4.5 mph N7.2 kmh N 11.4 mph18.3 kmh 30.52 in1033.5 mb 0.00 in0.0 mm 0.00 in0.0 mm 0.00 in0.0 mm
01:15 AM 18.3°F-7.6°C 18.1°F-7.7°C 99% 9.2 mph N14.8 kmh N 13.6 mph21.9 kmh 30.52 in1033.5 mb 0.00 in0.0 mm 0.00 in0.0 mm 0.00 in0.0 mm
01:30 AM 17.6°F-8.0°C 17.4°F-8.1°C 99% 4.5 mph N7.2 kmh N 15.2 mph24.5 kmh 30.53 in1033.9 mb 0.00 in0.0 mm 0.00 in0.0 mm 0.00 in0.0 mm
01:45 AM 17.2°F-8.2°C 17.0°F-8.3°C 99% 3.1 mph NNW5.0 kmh NNW 10.7 mph17.2 kmh 30.53 in1033.9 mb 0.00 in0.0 mm 0.00 in0.0 mm 0.00 in0.0 mm
02:00 AM 16.9°F-8.4°C 16.7°F-8.5°C 99% 1.6 mph NW2.6 kmh NW 9.2 mph14.8 kmh 30.52 in1033.5 mb 0.00 in0.0 mm 0.00 in0.0 mm 0.00 in0.0 mm
02:15 AM 16.3°F-8.7°C 16.1°F-8.8°C 99% 3.8 mph NW6.1 kmh NW 11.4 mph18.3 kmh 30.53 in1033.9 mb 0.00 in0.0 mm 0.00 in0.0 mm 0.00 in0.0 mm
02:30 AM 15.8°F-9.0°C 15.6°F-9.1°C 99% 3.8 mph NNW6.1 kmh NNW 8.3 mph13.4 kmh 30.54 in1034.2 mb 0.00 in0.0 mm 0.00 in0.0 mm 0.00 in0.0 mm
02:45 AM 15.4°F-9.2°C 15.3°F-9.3°C 99% 1.6 mph N2.6 kmh N 8.3 mph13.4 kmh 30.55 in1034.5 mb 0.00 in0.0 mm 0.00 in0.0 mm 0.00 in0.0 mm
03:00 AM 14.9°F-9.5°C 14.7°F-9.6°C 99% 3.1 mph NNW5.0 kmh NNW 10.7 mph17.2 kmh 30.56 in1034.9 mb 0.00 in0.0 mm 0.00 in0.0 mm 0.00 in0.0 mm
03:15 AM 14.5°F-9.7°C 14.4°F-9.8°C 99% 2.2 mph NNW3.5 kmh NNW 8.3 mph13.4 kmh 30.56 in1034.9 mb 0.00 in0.0 mm 0.00 in0.0 mm 0.00 in0.0 mm
03:30 AM 14.0°F-10.0°C 13.8°F-10.1°C 99% 2.2 mph N3.5 kmh N 9.2 mph14.8 kmh 30.56 in1034.9 mb 0.00 in0.0 mm 0.00 in0.0 mm 0.00 in0.0 mm
03:45 AM 13.6°F-10.2°C 13.5°F-10.3°C 99% 4.5 mph NNW7.2 kmh NNW 8.3 mph13.4 kmh 30.55 in1034.5 mb 0.00 in0.0 mm 0.00 in0.0 mm 0.00 in0.0 mm
04:00 AM 13.1°F-10.5°C 12.9°F-10.6°C 99% 2.2 mph NNW3.5 kmh NNW 13.0 mph20.9 kmh 30.57 in1035.2 mb 0.00 in0.0 mm 0.00 in0.0 mm 0.00 in0.0 mm
04:15 AM 12.9°F-10.6°C 12.7°F-10.7°C 99% 2.2 mph NW3.5 kmh NW 6.0 mph9.7 kmh 30.57 in1035.2 mb 0.00 in0.0 mm 0.00 in0.0 mm 0.00 in0.0 mm
04:30 AM 12.4°F-10.9°C 12.2°F-11.0°C 99% 3.8 mph NNW6.1 kmh NNW 9.8 mph15.8 kmh 30.57 in1035.2 mb 0.00 in0.0 mm 0.00 in0.0 mm 0.00 in0.0 mm
04:45 AM 12.2°F-11.0°C 12.0°F-11.1°C 99% 6.0 mph NNW9.7 kmh NNW 12.1 mph19.5 kmh 30.57 in1035.2 mb 0.00 in0.0 mm 0.00 in0.0 mm 0.00 in0.0 mm
05:00 AM 12.0°F-11.1°C 11.8°F-11.2°C 99% 2.2 mph NNW3.5 kmh NNW 6.0 mph9.7 kmh 30.58 in1035.6 mb 0.00 in0.0 mm 0.00 in0.0 mm 0.00 in0.0 mm
05:15 AM 11.8°F-11.2°C 11.7°F-11.3°C 99% 2.2 mph NNW3.5 kmh NNW 5.4 mph8.7 kmh 30.58 in1035.6 mb 0.00 in0.0 mm 0.00 in0.0 mm 0.00 in0.0 mm
05:30 AM 11.7°F-11.3°C 11.5°F-11.4°C 99% 2.2 mph N3.5 kmh N 6.9 mph11.1 kmh 30.59 in1035.9 mb 0.00 in0.0 mm 0.00 in0.0 mm 0.00 in0.0 mm
05:45 AM 11.7°F-11.3°C 11.5°F-11.4°C 99% 0.7 mph N1.1 kmh N 6.0 mph9.7 kmh 30.59 in1035.9 mb 0.00 in0.0 mm 0.00 in0.0 mm 0.00 in0.0 mm
06:00 AM 11.5°F-11.4°C 11.3°F-11.5°C 99% 1.6 mph N2.6 kmh N 3.8 mph6.1 kmh 30.59 in1035.9 mb 0.00 in0.0 mm 0.00 in0.0 mm 0.00 in0.0 mm
06:15 AM 11.5°F-11.4°C 11.3°F-11.5°C 99% 0.7 mph NW1.1 kmh NW 3.1 mph5.0 kmh 30.59 in1035.9 mb 0.00 in0.0 mm 0.00 in0.0 mm 0.00 in0.0 mm
06:30 AM 11.7°F-11.3°C 11.5°F-11.4°C 99% 0.7 mph NNW1.1 kmh NNW 6.9 mph11.1 kmh 30.60 in1036.2 mb 0.00 in0.0 mm 0.00 in0.0 mm 0.00 in0.0 mm
06:45 AM 11.7°F-11.3°C 11.3°F-11.5°C 98% 3.8 mph NNW6.1 kmh NNW 7.6 mph12.2 kmh 30.61 in1036.6 mb 0.00 in0.0 mm 0.00 in0.0 mm 0.00 in0.0 mm
07:00 AM 11.3°F-11.5°C 10.9°F-11.7°C 98% 1.6 mph NNW2.6 kmh NNW 7.6 mph12.2 kmh 30.61 in1036.6 mb 0.00 in0.0 mm 0.00 in0.0 mm 0.00 in0.0 mm
07:15 AM 11.1°F-11.6°C 10.5°F-11.9°C 97% 3.1 mph NW5.0 kmh NW 6.9 mph11.1 kmh 30.61 in1036.6 mb 0.00 in0.0 mm 0.00 in0.0 mm 0.00 in0.0 mm
07:30 AM 10.6°F-11.9°C 10.0°F-12.2°C 97% 3.1 mph NNW5.0 kmh NNW 7.6 mph12.2 kmh 30.62 in1036.9 mb 0.00 in0.0 mm 0.00 in0.0 mm 0.00 in0.0 mm
07:45 AM 10.0°F-12.2°C 9.2°F-12.7°C 96% 0.7 mph NNW1.1 kmh NNW 6.0 mph9.7 kmh 30.62 in1036.9 mb 0.00 in0.0 mm 0.00 in0.0 mm 0.00 in0.0 mm
08:00 AM 9.7°F-12.4°C 8.8°F-12.9°C 96% 1.6 mph N2.6 kmh N 6.9 mph11.1 kmh 30.62 in1036.9 mb 0.00 in0.0 mm 0.00 in0.0 mm 0.00 in0.0 mm
08:15 AM 9.5°F-12.5°C 8.7°F-12.9°C 96% 1.6 mph NNW2.6 kmh NNW 6.0 mph9.7 kmh 30.63 in1037.3 mb 0.00 in0.0 mm 0.00 in0.0 mm 0.00 in0.0 mm
08:30 AM 9.5°F-12.5°C 8.4°F-13.1°C 95% 0.7 mph N1.1 kmh N 6.0 mph9.7 kmh 30.63 in1037.3 mb 0.00 in0.0 mm 0.00 in0.0 mm 0.00 in0.0 mm
08:45 AM 9.7°F-12.4°C 8.6°F-13.0°C 95% 1.6 mph NNW2.6 kmh NNW 3.8 mph6.1 kmh 30.63 in1037.3 mb 0.00 in0.0 mm 0.00 in0.0 mm 0.00 in0.0 mm
09:00 AM 9.5°F-12.5°C 8.4°F-13.1°C 95% 0.7 mph NNW1.1 kmh NNW 5.4 mph8.7 kmh 30.64 in1037.6 mb 0.00 in0.0 mm 0.00 in0.0 mm 0.00 in0.0 mm
09:15 AM 9.3°F-12.6°C 8.2°F-13.2°C 95% 0.7 mph NNW1.1 kmh NNW 6.9 mph11.1 kmh 30.65 in1037.9 mb 0.00 in0.0 mm 0.00 in0.0 mm 0.00 in0.0 mm
09:30 AM 9.1°F-12.7°C 7.8°F-13.4°C 94% 2.2 mph N3.5 kmh N 6.9 mph11.1 kmh 30.65 in1037.9 mb 0.00 in0.0 mm 0.00 in0.0 mm 0.00 in0.0 mm
09:45 AM 9.0°F-12.8°C 7.4°F-13.7°C 93% 2.2 mph N3.5 kmh N 7.6 mph12.2 kmh 30.65 in1037.9 mb 0.00 in0.0 mm 0.00 in0.0 mm 0.00 in0.0 mm
10:00 AM 9.3°F-12.6°C 7.8°F-13.4°C 93% 0.7 mph NNW1.1 kmh NNW 8.3 mph13.4 kmh 30.65 in1037.9 mb 0.00 in0.0 mm 0.00 in0.0 mm 0.00 in0.0 mm
10:15 AM 11.7°F-11.3°C 10.1°F-12.2°C 93% 1.6 mph NNW2.6 kmh NNW 8.3 mph13.4 kmh 30.66 in1038.3 mb 0.00 in0.0 mm 0.00 in0.0 mm 0.00 in0.0 mm
10:30 AM 12.0°F-11.1°C 10.2°F-12.1°C 92% 2.2 mph NW3.5 kmh NW 6.0 mph9.7 kmh 30.66 in1038.3 mb 0.00 in0.0 mm 0.00 in0.0 mm 0.00 in0.0 mm
10:45 AM 13.6°F-10.2°C 11.6°F-11.3°C 91% 0.7 mph NW1.1 kmh NW 6.0 mph9.7 kmh 30.67 in1038.6 mb 0.00 in0.0 mm 0.00 in0.0 mm 0.00 in0.0 mm
11:00 AM 13.6°F-10.2°C 11.1°F-11.6°C 89% 1.6 mph NNW2.6 kmh NNW 6.9 mph11.1 kmh 30.67 in1038.6 mb 0.00 in0.0 mm 0.00 in0.0 mm 0.00 in0.0 mm
11:15 AM 14.2°F-9.9°C 11.3°F-11.5°C 88% 2.2 mph NW3.5 kmh NW 5.4 mph8.7 kmh 30.66 in1038.3 mb 0.02 in0.5 mm 0.08 in2.0 mm 0.02 in0.5 mm
11:30 AM 14.9°F-9.5°C 11.8°F-11.2°C 87% 1.6 mph NW2.6 kmh NW 4.5 mph7.2 kmh 30.66 in1038.3 mb 0.02 in0.5 mm 0.00 in0.0 mm 0.02 in0.5 mm
11:45 AM 15.1°F-9.4°C 11.4°F-11.4°C 85% 2.2 mph NW3.5 kmh NW 6.0 mph9.7 kmh 30.66 in1038.3 mb 0.04 in1.0 mm 0.08 in2.0 mm 0.04 in1.0 mm
12:00 PM 15.3°F-9.3°C 11.4°F-11.4°C 84% 2.2 mph NW3.5 kmh NW 4.5 mph7.2 kmh 30.66 in1038.3 mb 0.05 in1.3 mm 0.01 in0.3 mm 0.05 in1.3 mm
12:15 PM 15.6°F-9.1°C 11.4°F-11.4°C 83% 0.7 mph NW1.1 kmh NW 6.0 mph9.7 kmh 30.65 in1037.9 mb 0.04 in1.0 mm 0.00 in0.0 mm 0.06 in1.5 mm
12:30 PM 15.6°F-9.1°C 10.9°F-11.7°C 81% 1.6 mph NW2.6 kmh NW 6.0 mph9.7 kmh 30.65 in1037.9 mb 0.04 in1.0 mm 0.00 in0.0 mm 0.06 in1.5 mm
12:45 PM 15.4°F-9.2°C 10.4°F-12.0°C 80% 0.7 mph NW1.1 kmh NW 6.9 mph11.1 kmh 30.64 in1037.6 mb 0.04 in1.0 mm 0.00 in0.0 mm 0.07 in1.8 mm
01:00 PM 15.4°F-9.2°C 10.2°F-12.1°C 79% 2.2 mph NW3.5 kmh NW 6.0 mph9.7 kmh 30.63 in1037.3 mb 0.02 in0.5 mm 0.00 in0.0 mm 0.07 in1.8 mm
01:15 PM 15.1°F-9.4°C 9.2°F-12.7°C 77% 3.1 mph NNW5.0 kmh NNW 5.4 mph8.7 kmh 30.63 in1037.3 mb 0.01 in0.3 mm 0.00 in0.0 mm 0.07 in1.8 mm
01:30 PM 15.8°F-9.0°C 10.2°F-12.1°C 78% 3.8 mph NW6.1 kmh NW 6.0 mph9.7 kmh 30.63 in1037.3 mb 0.01 in0.3 mm 0.00 in0.0 mm 0.07 in1.8 mm
01:45 PM 15.6°F-9.1°C 9.5°F-12.5°C 76% 2.2 mph NNW3.5 kmh NNW 6.0 mph9.7 kmh 30.62 in1036.9 mb 0.00 in0.0 mm 0.00 in0.0 mm 0.07 in1.8 mm
02:00 PM 16.2°F-8.8°C 10.3°F-12.1°C 77% 2.2 mph NW3.5 kmh NW 5.4 mph8.7 kmh 30.62 in1036.9 mb 0.00 in0.0 mm 0.00 in0.0 mm 0.07 in1.8 mm
02:15 PM 15.8°F-9.0°C 9.3°F-12.6°C 75% 3.1 mph NW5.0 kmh NW 6.0 mph9.7 kmh 30.62 in1036.9 mb 0.00 in0.0 mm 0.00 in0.0 mm 0.07 in1.8 mm
02:30 PM 16.0°F-8.9°C 9.8°F-12.3°C 76% 3.1 mph NW5.0 kmh NW 7.6 mph12.2 kmh 30.62 in1036.9 mb 0.00 in0.0 mm 0.00 in0.0 mm 0.07 in1.8 mm
02:45 PM 16.0°F-8.9°C 9.5°F-12.5°C 75% 2.2 mph NW3.5 kmh NW 7.6 mph12.2 kmh 30.61 in1036.6 mb 0.00 in0.0 mm 0.00 in0.0 mm 0.07 in1.8 mm
03:00 PM 15.6°F-9.1°C 8.9°F-12.8°C 74% 3.1 mph NW5.0 kmh NW 9.8 mph15.8 kmh 30.62 in1036.9 mb 0.00 in0.0 mm 0.00 in0.0 mm 0.07 in1.8 mm
03:15 PM 16.0°F-8.9°C 9.2°F-12.7°C 74% 1.6 mph NW2.6 kmh NW 6.0 mph9.7 kmh 30.62 in1036.9 mb 0.00 in0.0 mm 0.00 in0.0 mm 0.07 in1.8 mm
03:30 PM 16.2°F-8.8°C 9.1°F-12.7°C 73% 2.2 mph NW3.5 kmh NW 6.0 mph9.7 kmh 30.62 in1036.9 mb 0.00 in0.0 mm 0.00 in0.0 mm 0.07 in1.8 mm
03:45 PM 15.8°F-9.0°C 8.7°F-12.9°C 73% 1.6 mph NW2.6 kmh NW 4.5 mph7.2 kmh 30.62 in1036.9 mb 0.00 in0.0 mm 0.00 in0.0 mm 0.07 in1.8 mm
04:00 PM 15.4°F-9.2°C 8.4°F-13.1°C 73% 2.2 mph NW3.5 kmh NW 8.3 mph13.4 kmh 30.63 in1037.3 mb 0.01 in0.3 mm 0.01 in0.3 mm 0.08 in2.0 mm
04:15 PM 15.1°F-9.4°C 8.1°F-13.3°C 73% 3.1 mph NW5.0 kmh NW 7.6 mph12.2 kmh 30.63 in1037.3 mb 0.01 in0.3 mm 0.00 in0.0 mm 0.08 in2.0 mm
04:30 PM 14.0°F-10.0°C 7.0°F-13.9°C 73% 1.6 mph NW2.6 kmh NW 5.4 mph8.7 kmh 30.63 in1037.3 mb 0.01 in0.3 mm 0.00 in0.0 mm 0.08 in2.0 mm
04:45 PM 14.0°F-10.0°C 7.3°F-13.7°C 74% 2.2 mph NW3.5 kmh NW 4.5 mph7.2 kmh 30.64 in1037.6 mb 0.01 in0.3 mm 0.00 in0.0 mm 0.08 in2.0 mm
05:00 PM 14.0°F-10.0°C 7.3°F-13.7°C 74% 0.7 mph NW1.1 kmh NW 4.5 mph7.2 kmh 30.63 in1037.3 mb 0.00 in0.0 mm 0.00 in0.0 mm 0.08 in2.0 mm
05:15 PM 13.6°F-10.2°C 7.0°F-13.9°C 74% 0.7 mph NW1.1 kmh NW 3.1 mph5.0 kmh 30.64 in1037.6 mb 0.00 in0.0 mm 0.00 in0.0 mm 0.08 in2.0 mm
05:30 PM 13.1°F-10.5°C 6.4°F-14.2°C 74% Calm Calm 2.2 mph3.5 kmh 30.65 in1037.9 mb 0.00 in0.0 mm 0.00 in0.0 mm 0.08 in2.0 mm
05:45 PM 11.7°F-11.3°C 5.1°F-14.9°C 74% Calm Calm 1.6 mph2.6 kmh 30.64 in1037.6 mb 0.00 in0.0 mm 0.00 in0.0 mm 0.08 in2.0 mm
06:00 PM 9.9°F-12.3°C 3.3°F-15.9°C 74% Calm Calm 1.6 mph2.6 kmh 30.64 in1037.6 mb 0.00 in0.0 mm 0.00 in0.0 mm 0.08 in2.0 mm
06:15 PM 8.2°F-13.2°C 2.0°F-16.7°C 75% Calm Calm -- 30.65 in1037.9 mb 0.00 in0.0 mm 0.00 in0.0 mm 0.08 in2.0 mm
06:30 PM 6.8°F-14.0°C 1.2°F-17.1°C 77% Calm Calm 1.6 mph2.6 kmh 30.65 in1037.9 mb 0.00 in0.0 mm 0.00 in0.0 mm 0.08 in2.0 mm
06:45 PM 5.4°F-14.8°C 0.1°F-17.7°C 78% Calm Calm 0.7 mph1.1 kmh 30.64 in1037.6 mb 0.00 in0.0 mm 0.00 in0.0 mm 0.08 in2.0 mm
07:00 PM 4.3°F-15.4°C -0.7°F-18.2°C 79% Calm Calm 1.6 mph2.6 kmh 30.65 in1037.9 mb 0.00 in0.0 mm 0.00 in0.0 mm 0.08 in2.0 mm
07:15 PM 3.7°F-15.7°C -0.7°F-18.2°C 81% Calm Calm -- 30.65 in1037.9 mb 0.00 in0.0 mm 0.00 in0.0 mm 0.08 in2.0 mm
07:30 PM 3.4°F-15.9°C -0.8°F-18.2°C 82% Calm Calm -- 30.65 in1037.9 mb 0.00 in0.0 mm 0.00 in0.0 mm 0.08 in2.0 mm
07:45 PM 3.4°F-15.9°C -0.5°F-18.1°C 83% Calm Calm -- 30.66 in1038.3 mb 0.00 in0.0 mm 0.00 in0.0 mm 0.08 in2.0 mm
08:00 PM 3.6°F-15.8°C -0.1°F-17.8°C 84% Calm Calm -- 30.66 in1038.3 mb 0.00 in0.0 mm 0.00 in0.0 mm 0.08 in2.0 mm
08:15 PM 3.6°F-15.8°C -0.1°F-17.8°C 84% Calm Calm 0.7 mph1.1 kmh 30.66 in1038.3 mb 0.00 in0.0 mm 0.00 in0.0 mm 0.08 in2.0 mm
08:30 PM 4.1°F-15.5°C 0.9°F-17.3°C 86% Calm Calm 0.7 mph1.1 kmh 30.66 in1038.3 mb 0.00 in0.0 mm 0.00 in0.0 mm 0.08 in2.0 mm
08:45 PM 4.3°F-15.4°C 1.1°F-17.2°C 86% Calm Calm 0.7 mph1.1 kmh 30.66 in1038.3 mb 0.00 in0.0 mm 0.00 in0.0 mm 0.08 in2.0 mm
09:00 PM 4.3°F-15.4°C 1.1°F-17.2°C 86% Calm Calm -- 30.66 in1038.3 mb 0.00 in0.0 mm 0.00 in0.0 mm 0.08 in2.0 mm
09:15 PM 4.5°F-15.3°C 1.5°F-16.9°C 87% Calm Calm 0.7 mph1.1 kmh 30.66 in1038.3 mb 0.00 in0.0 mm 0.00 in0.0 mm 0.08 in2.0 mm
09:30 PM 4.8°F-15.1°C 1.9°F-16.7°C 87% Calm Calm -- 30.67 in1038.6 mb 0.00 in0.0 mm 0.00 in0.0 mm 0.08 in2.0 mm
09:45 PM 5.2°F-14.9°C 2.5°F-16.4°C 88% Calm Calm 1.6 mph2.6 kmh 30.67 in1038.6 mb 0.00 in0.0 mm 0.00 in0.0 mm 0.08 in2.0 mm
10:00 PM 5.4°F-14.8°C 2.7°F-16.3°C 88% Calm Calm 1.6 mph2.6 kmh 30.67 in1038.6 mb 0.00 in0.0 mm 0.00 in0.0 mm 0.08 in2.0 mm
10:15 PM 5.7°F-14.6°C 3.0°F-16.1°C 88% Calm Calm 1.6 mph2.6 kmh 30.67 in1038.6 mb 0.00 in0.0 mm 0.00 in0.0 mm 0.08 in2.0 mm
10:30 PM 5.7°F-14.6°C 3.0°F-16.1°C 88% Calm Calm 0.7 mph1.1 kmh 30.66 in1038.3 mb 0.00 in0.0 mm 0.00 in0.0 mm 0.08 in2.0 mm
10:45 PM 5.2°F-14.9°C 2.2°F-16.6°C 87% Calm Calm 0.7 mph1.1 kmh 30.66 in1038.3 mb 0.00 in0.0 mm 0.00 in0.0 mm 0.08 in2.0 mm
11:00 PM 4.1°F-15.5°C 1.4°F-17.0°C 88% Calm Calm 0.7 mph1.1 kmh 30.66 in1038.3 mb 0.00 in0.0 mm 0.00 in0.0 mm 0.08 in2.0 mm
11:15 PM 3.0°F-16.1°C 0.4°F-17.6°C 88% Calm Calm 1.6 mph2.6 kmh 30.66 in1038.3 mb 0.00 in0.0 mm 0.00 in0.0 mm 0.08 in2.0 mm
11:30 PM 1.8°F-16.8°C -0.9°F-18.3°C 88% Calm Calm 0.7 mph1.1 kmh 30.66 in1038.3 mb 0.00 in0.0 mm 0.00 in0.0 mm 0.08 in2.0 mm
11:45 PM 0.7°F-17.4°C -1.9°F-18.8°C 88% Calm Calm -- 30.66 in1038.3 mb 0.00 in0.0 mm 0.00 in0.0 mm 0.08 in2.0 mm